Terminal Aerodrome Forecast
Issued by NWS Upton, NY

Home | Current Version | Previous Version | Text Only | Print | Product List | Glossary On
Versions: 1 2 3 4 5 6 7 8 9 10 11 12 13 14 15 16 17 18 19 20 21 22 23 24 25 26 27
000
FTUS41 KOKX 251948 AAA
TAFJFK
TAF AMD
KJFK 251948Z 2520/2624 18021G28KT P6SM SCT250
     FM260000 19017G23KT P6SM FEW250
     FM260300 21011KT P6SM FEW150 FEW200
     FM261600 18014KT P6SM SCT070 SCT200
     FM262100 18019G25KT P6SM SCT070 BKN200=

USA.gov is the U.S. government's official web portal to all federal, state and local government web resources and services.